Time;durP1;ratioP1;P1;durP2;ratioP2;P2;SDS_P1;SDS_P2;PMS_P1;PMS_P2;Temp;Humidity;BMP_temperature;BMP_pressure;BME280_temperature;BME280_humidity;BME280_pressure;Samples;Min_cycle;Max_cycle;Signal;HPM_P1;HPM_P2
2023/04/23 00:00:29;;;;;;;;;;;;;;;25.07;43.44;96952.94;611042;231;65161;-60
2023/04/23 00:02:57;;;;;;;;;;;;;;;25.06;44.19;96956.73;611024;231;64637;-60
2023/04/23 00:05:26;;;;;;;;;;;;;;;25.06;43.80;96948.66;611444;232;64871;-60
2023/04/23 00:07:54;;;;;;;;;;;;;;;25.05;43.96;96949.77;611034;231;62945;-60
2023/04/23 00:10:22;;;;;;;;;;;;;;;25.04;45.47;96943.58;611069;232;67540;-60
2023/04/23 00:12:50;;;;;;;;;;;;;;;25.03;44.26;96952.75;611342;231;67128;-60
2023/04/23 00:15:20;;;;;;;;;;;;;;;25.02;44.48;96954.64;611573;232;65061;-60
2023/04/23 00:17:46;;;;;;;;;;;;;;;25.01;45.49;96950.34;612071;231;67238;-61
2023/04/23 00:20:15;;;;;;;;;;;;;;;25.01;44.26;96950.34;610987;231;65833;-60
2023/04/23 00:22:44;;;;;;;;;;;;;;;25.00;46.32;96946.08;611110;232;65036;-61
2023/04/23 00:25:12;;;;;;;;;;;;;;;24.99;45.80;96947.18;611288;231;66977;-59
2023/04/23 00:27:39;;;;;;;;;;;;;;;24.98;44.94;96950.94;611195;231;64714;-59
2023/04/23 00:30:07;;;;;;;;;;;;;;;24.98;45.00;96945.56;612162;230;64942;-59
2023/04/23 00:32:35;;;;;;;;;;;;;;;24.97;44.04;96948.57;612381;231;66954;-59
2023/04/23 00:35:03;;;;;;;;;;;;;;;24.97;44.65;96959.33;611861;231;66812;-60
2023/04/23 00:37:30;;;;;;;;;;;;;;;24.96;45.64;96955.84;611317;232;62760;-59
2023/04/23 00:39:58;;;;;;;;;;;;;;;24.96;46.45;96946.96;611065;230;66207;-60
2023/04/23 00:42:25;;;;;;;;;;;;;;;24.96;44.78;96953.16;611057;231;64654;-59
2023/04/23 00:44:53;;;;;;;;;;;;;;;24.95;44.28;96948.86;611199;232;66108;-60
2023/04/23 00:47:21;;;;;;;;;;;;;;;24.93;45.02;96947.56;611297;231;66886;-60
2023/04/23 00:49:50;;;;;;;;;;;;;;;24.92;45.30;96952.14;611157;231;63968;-60
2023/04/23 00:52:18;;;;;;;;;;;;;;;24.92;46.71;96945.98;611258;231;65037;-60
2023/04/23 00:54:45;;;;;;;;;;;;;;;24.91;44.21;96950.56;611498;230;66789;-60
2023/04/23 00:57:13;;;;;;;;;;;;;;;24.90;45.27;96951.64;612609;231;64588;-60
2023/04/23 00:59:41;;;;;;;;;;;;;;;24.90;44.34;96948.16;613362;231;64987;-60
2023/04/23 01:02:08;;;;;;;;;;;;;;;24.89;44.42;96947.37;611478;231;66527;-60
2023/04/23 01:04:36;;;;;;;;;;;;;;;24.88;44.35;96948.47;612309;231;66774;-60
2023/04/23 01:07:04;;;;;;;;;;;;;;;24.87;44.77;96946.86;611323;231;65061;-60
2023/04/23 01:09:31;;;;;;;;;;;;;;;24.86;45.45;96953.34;611260;231;66919;-60
2023/04/23 01:12:01;;;;;;;;;;;;;;;24.86;44.85;96953.34;610983;231;66908;-60
2023/04/23 01:14:29;;;;;;;;;;;;;;;24.85;46.67;96951.73;611292;231;65676;-60
2023/04/23 01:16:57;;;;;;;;;;;;;;;24.84;43.51;96944.77;611926;231;67562;-60
2023/04/23 01:19:25;;;;;;;;;;;;;;;24.83;45.87;96940.50;611185;232;67282;-60
2023/04/23 01:21:53;;;;;;;;;;;;;;;24.84;44.81;96943.98;610976;232;65135;-59
2023/04/23 01:24:21;;;;;;;;;;;;;;;24.84;45.46;96949.36;613613;230;65828;-60
2023/04/23 01:26:48;;;;;;;;;;;;;;;24.83;43.17;96947.74;611013;232;64321;-60
2023/04/23 01:29:16;;;;;;;;;;;;;;;24.81;44.62;96943.47;611217;231;62758;-60
2023/04/23 01:31:44;;;;;;;;;;;;;;;24.81;44.79;96942.69;611459;231;64722;-60
2023/04/23 01:34:11;;;;;;;;;;;;;;;24.80;44.73;96949.95;611958;231;64756;-60
2023/04/23 01:36:40;;;;;;;;;;;;;;;24.80;45.05;96943.78;611497;230;62921;-60
2023/04/23 01:39:08;;;;;;;;;;;;;;;24.79;45.21;96942.97;611225;232;66853;-60
2023/04/23 01:41:36;;;;;;;;;;;;;;;24.78;45.16;96948.66;611106;231;66931;-60
2023/04/23 01:44:04;;;;;;;;;;;;;;;24.77;43.71;96947.04;611123;231;63697;-60
2023/04/23 01:46:32;;;;;;;;;;;;;;;24.77;45.67;96945.17;611387;232;64359;-60
2023/04/23 01:49:00;;;;;;;;;;;;;;;24.77;45.52;96944.36;611357;231;64396;-60
2023/04/23 01:51:29;;;;;;;;;;;;;;;24.76;43.15;96948.14;611553;231;63023;-60
2023/04/23 01:53:56;;;;;;;;;;;;;;;24.75;42.78;96949.25;611058;231;67537;-61
2023/04/23 01:56:25;;;;;;;;;;;;;;;24.74;44.96;96944.95;611898;231;66699;-60
2023/04/23 01:58:53;;;;;;;;;;;;;;;24.73;44.73;96951.43;611042;232;65092;-60
2023/04/23 02:01:20;;;;;;;;;;;;;;;24.73;44.66;96948.74;611152;230;66790;-61
2023/04/23 02:03:50;;;;;;;;;;;;;;;24.73;45.05;96954.13;611484;231;65125;-60
2023/04/23 02:06:17;;;;;;;;;;;;;;;24.72;44.14;96955.23;611327;230;71023;-60
2023/04/23 02:08:45;;;;;;;;;;;;;;;24.71;45.15;96956.30;611816;231;66743;-60
2023/04/23 02:11:12;;;;;;;;;;;;;;;24.70;43.38;96947.45;611647;230;67038;-60
2023/04/23 02:13:40;;;;;;;;;;;;;;;24.70;45.17;96954.72;611475;231;63907;-60
2023/04/23 02:16:08;;;;;;;;;;;;;;;24.68;42.91;96949.63;611914;231;66897;-61
2023/04/23 02:18:35;;;;;;;;;;;;;;;24.68;44.70;96952.31;611490;232;67540;-61
2023/04/23 02:21:03;;;;;;;;;;;;;;;24.68;45.39;96959.58;611239;232;64852;-61
2023/04/23 02:23:31;;;;;;;;;;;;;;;24.67;45.79;96950.73;611175;232;66814;-61
2023/04/23 02:25:58;;;;;;;;;;;;;;;24.67;45.69;96955.31;611531;230;66837;-60
2023/04/23 02:28:25;;;;;;;;;;;;;;;24.65;43.84;96955.59;611564;231;64974;-60
2023/04/23 02:30:53;;;;;;;;;;;;;;;24.66;43.39;96956.39;611062;231;67683;-60
2023/04/23 02:33:20;;;;;;;;;;;;;;;24.65;44.28;96958.28;611011;231;66831;-61
2023/04/23 02:35:48;;;;;;;;;;;;;;;24.65;45.81;96963.66;611471;231;64890;-60
2023/04/23 02:38:15;;;;;;;;;;;;;;;24.64;44.90;96966.66;611012;232;67096;-61
2023/04/23 02:40:43;;;;;;;;;;;;;;;24.63;44.57;96965.05;611318;232;66689;-60
2023/04/23 02:43:10;;;;;;;;;;;;;;;24.62;44.82;96958.88;611087;231;64958;-60
2023/04/23 02:45:38;;;;;;;;;;;;;;;24.61;45.30;96954.61;611152;231;66964;-60
2023/04/23 02:48:05;;;;;;;;;;;;;;;24.61;45.17;96957.30;611545;230;64622;-61
2023/04/23 02:50:33;;;;;;;;;;;;;;;24.59;44.29;96954.89;611156;231;62737;-61
2023/04/23 02:53:01;;;;;;;;;;;;;;;24.59;45.00;96954.89;611327;232;66997;-61
2023/04/23 02:55:30;;;;;;;;;;;;;;;24.58;45.87;96955.99;611765;231;66794;-60
2023/04/23 02:57:58;;;;;;;;;;;;;;;24.57;45.09;96951.69;611281;231;65195;-61
2023/04/23 03:00:27;;;;;;;;;;;;;;;24.56;45.41;96952.00;612423;231;66945;-60
2023/04/23 03:02:54;;;;;;;;;;;;;;;24.56;44.71;96965.44;611502;230;64708;-61
2023/04/23 03:05:22;;;;;;;;;;;;;;;24.56;43.54;96960.06;611309;232;63025;-61
2023/04/23 03:07:49;;;;;;;;;;;;;;;24.54;46.76;96963.03;611075;232;66796;-61
2023/04/23 03:10:17;;;;;;;;;;;;;;;24.54;44.32;96965.72;614141;230;66654;-61
2023/04/23 03:12:44;;;;;;;;;;;;;;;24.54;43.75;96967.61;611114;232;65197;-61
2023/04/23 03:15:12;;;;;;;;;;;;;;;24.52;45.55;96965.21;611164;231;66786;-61
2023/04/23 03:17:40;;;;;;;;;;;;;;;24.52;44.49;96964.42;612496;231;64931;-61
2023/04/23 03:20:10;;;;;;;;;;;;;;;24.52;44.75;96967.11;612779;231;65735;-61
2023/04/23 03:22:38;;;;;;;;;;;;;;;24.51;45.85;96965.52;611495;230;67231;-61
2023/04/23 03:25:07;;;;;;;;;;;;;;;24.50;45.20;96962.05;611403;231;66847;-61
2023/04/23 03:27:35;;;;;;;;;;;;;;;24.51;46.26;96962.84;611120;231;63121;-61
2023/04/23 03:30:03;;;;;;;;;;;;;;;24.49;45.24;96962.33;612623;231;67198;-61
2023/04/23 03:32:30;;;;;;;;;;;;;;;24.48;45.32;96964.22;611629;232;66541;-61
2023/04/23 03:34:58;;;;;;;;;;;;;;;24.47;44.14;96962.64;611091;232;62618;-61
2023/04/23 03:37:25;;;;;;;;;;;;;;;24.47;44.71;96973.38;611602;231;64020;-61
2023/04/23 03:39:53;;;;;;;;;;;;;;;24.47;45.83;96970.70;611619;232;67239;-61
2023/04/23 03:42:21;;;;;;;;;;;;;;;24.45;44.70;96964.81;605877;231;65200;-61
2023/04/23 03:44:49;;;;;;;;;;;;;;;24.45;44.95;96964.81;611769;231;66651;-61
2023/04/23 03:47:16;;;;;;;;;;;;;;;24.45;43.65;96964.02;612548;231;66819;-61
2023/04/23 03:49:44;;;;;;;;;;;;;;;24.44;45.52;96959.72;612697;231;62461;-61
2023/04/23 03:52:12;;;;;;;;;;;;;;;24.43;46.39;96966.95;613181;231;68027;-61
2023/04/23 03:54:40;;;;;;;;;;;;;;;24.43;45.11;96966.95;611868;230;67100;-61
2023/04/23 03:57:11;;;;;;;;;;;;;;;24.43;45.98;96968.85;613325;231;42594;-61
2023/04/23 03:59:40;;;;;;;;;;;;;;;24.42;44.91;96969.92;611464;231;43518;-61
2023/04/23 04:02:08;;;;;;;;;;;;;;;24.41;44.40;96973.72;611517;230;65596;-61
2023/04/23 04:04:36;;;;;;;;;;;;;;;24.40;45.90;96975.61;611486;231;63144;-61
2023/04/23 04:07:06;;;;;;;;;;;;;;;24.39;43.51;96976.71;611905;231;66882;-61
2023/04/23 04:09:33;;;;;;;;;;;;;;;24.39;44.29;96976.71;611298;232;64580;-61
2023/04/23 04:12:02;;;;;;;;;;;;;;;24.39;44.22;96984.77;611219;230;65693;-61
2023/04/23 04:14:31;;;;;;;;;;;;;;;24.38;44.43;96983.16;609470;231;66868;-60
2023/04/23 04:16:58;;;;;;;;;;;;;;;24.37;44.77;96984.26;613237;230;64762;-60
2023/04/23 04:19:26;;;;;;;;;;;;;;;24.36;46.67;96978.09;611257;231;64859;-60
2023/04/23 04:21:54;;;;;;;;;;;;;;;24.36;45.28;96982.64;611094;232;66963;-60
2023/04/23 04:24:24;;;;;;;;;;;;;;;24.35;44.12;96987.22;608905;231;66874;-60
2023/04/23 04:26:51;;;;;;;;;;;;;;;24.36;46.50;96985.33;613221;230;69656;-60
2023/04/23 04:29:20;;;;;;;;;;;;;;;24.35;44.56;96986.43;611689;231;67037;-60
2023/04/23 04:31:47;;;;;;;;;;;;;;;24.34;44.88;96990.22;611904;231;64629;-60
2023/04/23 04:34:16;;;;;;;;;;;;;;;24.33;43.75;96994.77;611017;232;63008;-60
2023/04/23 04:36:44;;;;;;;;;;;;;;;24.33;45.08;96996.66;611311;231;67213;-61
2023/04/23 04:39:13;;;;;;;;;;;;;;;24.32;45.80;96987.02;611777;231;65383;-60
2023/04/23 04:41:41;;;;;;;;;;;;;;;24.32;45.13;96987.02;611510;230;64965;-61
2023/04/23 04:44:09;;;;;;;;;;;;;;;24.31;45.60;96996.18;611069;231;65089;-60
2023/04/23 04:46:39;;;;;;;;;;;;;;;24.31;44.83;96993.49;611395;230;67045;-60
2023/04/23 04:49:10;;;;;;;;;;;;;;;24.29;44.05;96998.35;611304;232;63838;-60
2023/04/23 04:51:38;;;;;;;;;;;;;;;24.29;44.91;96999.14;611470;232;65112;-60
2023/04/23 04:54:06;;;;;;;;;;;;;;;24.27;43.83;96995.95;612097;231;65002;-59
2023/04/23 04:56:34;;;;;;;;;;;;;;;24.28;44.29;96996.73;611082;230;64880;-59
2023/04/23 04:59:02;;;;;;;;;;;;;;;24.28;44.37;96996.73;611139;230;66994;-59
2023/04/23 05:01:31;;;;;;;;;;;;;;;24.27;45.52;96995.16;611412;232;66982;-59
2023/04/23 05:03:59;;;;;;;;;;;;;;;24.27;46.69;97000.52;611617;232;63011;-58
2023/04/23 05:06:27;;;;;;;;;;;;;;;24.26;44.23;96993.57;611268;231;65405;-59
2023/04/23 05:08:55;;;;;;;;;;;;;;;24.26;46.38;96993.57;611338;232;67093;-59
2023/04/23 05:11:22;;;;;;;;;;;;;;;24.25;44.53;96997.33;611114;230;65121;-61
2023/04/23 05:13:50;;;;;;;;;;;;;;;24.24;45.31;96996.53;611862;231;67468;-60
2023/04/23 05:16:18;;;;;;;;;;;;;;;24.24;47.69;96998.43;612415;231;66992;-59
2023/04/23 05:18:45;;;;;;;;;;;;;;;24.23;44.06;96996.84;610992;232;65027;-59
2023/04/23 05:21:13;;;;;;;;;;;;;;;24.21;45.41;96996.33;611394;231;67324;-59
2023/04/23 05:23:41;;;;;;;;;;;;;;;24.21;46.15;97002.49;611493;231;67034;-59
2023/04/23 05:26:08;;;;;;;;;;;;;;;24.21;46.60;96996.33;611076;231;65035;-59
2023/04/23 05:28:36;;;;;;;;;;;;;;;24.19;45.17;96987.77;612196;231;67112;-59
2023/04/23 05:31:04;;;;;;;;;;;;;;;24.19;46.38;96993.13;611391;232;66937;-59
2023/04/23 05:33:31;;;;;;;;;;;;;;;24.19;46.92;96993.92;611114;230;63042;-59
2023/04/23 05:35:59;;;;;;;;;;;;;;;24.18;45.75;96989.66;611014;231;67376;-60
2023/04/23 05:38:26;;;;;;;;;;;;;;;24.18;45.50;96992.34;611526;231;67518;-61
2023/04/23 05:40:54;;;;;;;;;;;;;;;24.18;47.06;96997.71;611079;231;65061;-61
2023/04/23 05:43:21;;;;;;;;;;;;;;;24.17;47.21;96995.30;611358;232;67248;-61
2023/04/23 05:45:49;;;;;;;;;;;;;;;24.15;45.75;96999.09;611144;232;66967;-61
2023/04/23 05:48:16;;;;;;;;;;;;;;;24.15;44.97;96991.03;612141;230;64964;-60
2023/04/23 05:50:44;;;;;;;;;;;;;;;24.15;46.47;96993.72;611422;231;67381;-61
2023/04/23 05:53:11;;;;;;;;;;;;;;;24.15;47.97;96992.92;611194;230;67390;-61
2023/04/23 05:55:39;;;;;;;;;;;;;;;24.14;47.13;96994.00;611207;231;65011;-60
2023/04/23 05:58:06;;;;;;;;;;;;;;;24.12;45.71;96991.63;611436;230;67235;-60
2023/04/23 06:00:34;;;;;;;;;;;;;;;24.13;47.02;96990.52;612244;231;64924;-60
2023/04/23 06:03:01;;;;;;;;;;;;;;;24.12;45.91;96991.63;611415;232;64908;-60
2023/04/23 06:05:29;;;;;;;;;;;;;;;24.12;47.19;96993.52;611270;231;64919;-60
2023/04/23 06:07:56;;;;;;;;;;;;;;;24.11;47.14;96992.69;613098;230;64875;-59
2023/04/23 06:10:24;;;;;;;;;;;;;;;24.10;44.84;96988.42;611473;231;62968;-60
2023/04/23 06:12:53;;;;;;;;;;;;;;;24.10;47.07;96993.80;611330;230;64719;-60
2023/04/23 06:15:25;;;;;;;;;;;;;;;24.10;45.52;96990.31;611000;231;67010;-61
2023/04/23 06:17:52;;;;;;;;;;;;;;;24.09;46.73;96989.52;610876;231;64849;-61
2023/04/23 06:20:19;;;;;;;;;;;;;;;24.09;46.32;96989.52;613300;230;67407;-62
2023/04/23 06:22:47;;;;;;;;;;;;;;;24.09;47.82;96981.47;612239;231;66932;-61
2023/04/23 06:25:14;;;;;;;;;;;;;;;24.09;47.38;96981.47;611934;231;62950;-62
2023/04/23 06:27:42;;;;;;;;;;;;;;;24.09;46.31;96988.70;611968;231;67889;-62
2023/04/23 06:30:11;;;;;;;;;;;;;;;24.09;47.48;96983.33;610850;231;43908;-61
2023/04/23 06:32:39;;;;;;;;;;;;;;;24.08;45.53;96979.86;611093;230;64937;-60
2023/04/23 06:35:07;;;;;;;;;;;;;;;24.08;47.67;96974.48;611054;232;65022;-61
2023/04/23 06:37:34;;;;;;;;;;;;;;;24.09;47.65;96976.10;611128;230;67067;-61
2023/04/23 06:40:02;;;;;;;;;;;;;;;24.07;48.23;96980.95;611079;231;65057;-62
2023/04/23 06:42:31;;;;;;;;;;;;;;;24.08;46.23;96981.75;611879;231;50723;-61
2023/04/23 06:45:03;;;;;;;;;;;;;;;24.07;46.95;96980.95;611437;231;48289;-62
2023/04/23 06:47:30;;;;;;;;;;;;;;;24.06;46.72;96968.63;611145;231;64864;-62
2023/04/23 06:50:04;;;;;;;;;;;;;;;24.08;46.80;96973.70;611054;230;67118;-61
2023/04/23 06:52:27;;;;;;;;;;;;;;;24.06;47.14;96974.00;610688;231;67066;-61
2023/04/23 06:54:55;;;;;;;;;;;;;;;24.06;46.15;96968.63;611072;231;65080;-61
2023/04/23 06:57:22;;;;;;;;;;;;;;;24.07;47.82;96970.22;611387;230;67220;-61
2023/04/23 06:59:50;;;;;;;;;;;;;;;24.05;48.10;96967.02;611762;231;66845;-62
2023/04/23 07:02:19;;;;;;;;;;;;;;;24.05;48.24;96961.65;611898;231;62970;-62
2023/04/23 07:04:46;;;;;;;;;;;;;;;24.04;46.35;96968.12;611017;231;64946;-61
2023/04/23 07:07:14;;;;;;;;;;;;;;;24.03;47.80;96963.82;610936;231;67356;-61
2023/04/23 07:09:41;;;;;;;;;;;;;;;24.05;47.85;96966.23;611061;232;64823;-62
2023/04/23 07:12:09;;;;;;;;;;;;;;;24.05;46.97;96960.86;611386;231;67346;-61
2023/04/23 07:14:36;;;;;;;;;;;;;;;24.05;46.98;96960.86;611182;230;67038;-61
2023/04/23 07:17:04;;;;;;;;;;;;;;;24.05;48.04;96958.17;611890;230;64904;-61
2023/04/23 07:19:31;;;;;;;;;;;;;;;24.03;47.37;96953.08;611174;230;64850;-61
2023/04/23 07:21:59;;;;;;;;;;;;;;;24.03;48.45;96953.08;611439;231;64712;-61
2023/04/23 07:24:26;;;;;;;;;;;;;;;24.03;47.94;96947.72;609795;231;63070;-61
2023/04/23 07:26:54;;;;;;;;;;;;;;;24.02;47.96;96951.50;607595;231;64518;-60
2023/04/23 07:29:21;;;;;;;;;;;;;;;24.01;46.04;96949.91;611879;231;66818;-61
2023/04/23 07:31:49;;;;;;;;;;;;;;;24.02;46.93;96948.81;611048;232;62994;-61
2023/04/23 07:34:16;;;;;;;;;;;;;;;24.02;49.26;96946.13;611576;230;64923;-61
2023/04/23 07:36:44;;;;;;;;;;;;;;;24.01;47.08;96944.55;611059;231;64722;-61
2023/04/23 07:39:12;;;;;;;;;;;;;;;24.01;46.64;96951.78;611028;232;65107;-61
2023/04/23 07:41:39;;;;;;;;;;;;;;;24.01;47.62;96944.55;611048;230;66949;-61
2023/04/23 07:44:07;;;;;;;;;;;;;;;24.00;48.35;96940.25;612425;231;66807;-60
2023/04/23 07:46:34;;;;;;;;;;;;;;;23.99;47.79;96941.34;611213;231;65044;-60
2023/04/23 07:49:02;;;;;;;;;;;;;;;24.00;47.84;96942.14;609339;232;67101;-60
2023/04/23 07:51:30;;;;;;;;;;;;;;;23.99;47.22;96940.56;609838;231;67077;-60
2023/04/23 07:53:58;;;;;;;;;;;;;;;24.00;47.36;96942.14;611090;231;63869;-60
2023/04/23 07:56:25;;;;;;;;;;;;;;;23.99;49.21;96935.19;613018;231;67311;-60
2023/04/23 07:58:55;;;;;;;;;;;;;;;23.98;47.28;96937.08;611254;231;67011;-60
2023/04/23 08:01:22;;;;;;;;;;;;;;;23.98;46.72;96936.27;612394;231;65051;-60
2023/04/23 08:03:49;;;;;;;;;;;;;;;23.97;46.47;96922.05;613482;231;65051;-60
2023/04/23 08:06:17;;;;;;;;;;;;;;;23.97;48.58;96927.41;611149;231;67007;-60
2023/04/23 08:08:45;;;;;;;;;;;;;;;23.98;49.03;96933.58;611047;231;62947;-60
2023/04/23 08:11:12;;;;;;;;;;;;;;;23.96;46.40;96931.20;611871;231;67265;-60
2023/04/23 08:13:40;;;;;;;;;;;;;;;23.96;48.30;96933.89;611587;231;66702;-60
2023/04/23 08:16:07;;;;;;;;;;;;;;;23.96;48.88;96928.52;611233;230;64938;-61
2023/04/23 08:18:35;;;;;;;;;;;;;;;23.95;47.52;96929.59;611247;231;67211;-61
2023/04/23 08:21:03;;;;;;;;;;;;;;;23.95;48.66;96931.48;611459;231;67295;-61
2023/04/23 08:23:30;;;;;;;;;;;;;;;23.95;47.94;96920.74;611005;231;63801;-61
2023/04/23 08:25:57;;;;;;;;;;;;;;;23.95;48.66;96928.80;610975;231;67272;-61
2023/04/23 08:28:26;;;;;;;;;;;;;;;23.93;48.76;96927.21;611138;231;67062;-61
2023/04/23 08:30:54;;;;;;;;;;;;;;;23.94;48.01;96922.63;611544;231;65078;-61
2023/04/23 08:33:21;;;;;;;;;;;;;;;23.93;48.57;96921.05;611413;230;64805;-61
2023/04/23 08:35:49;;;;;;;;;;;;;;;23.92;48.26;96916.75;611195;231;66914;-61
2023/04/23 08:38:16;;;;;;;;;;;;;;;23.92;49.27;96919.44;612010;230;65049;-60
2023/04/23 08:40:45;;;;;;;;;;;;;;;23.92;48.43;96927.49;611245;231;66883;-60
2023/04/23 08:43:23;;;;;;;;;;;;;;;23.91;48.79;96921.33;612218;231;66994;-60
2023/04/23 08:45:50;;;;;;;;;;;;;;;23.91;46.99;96918.64;611519;231;65034;-60
2023/04/23 08:48:17;;;;;;;;;;;;;;;;;;611029;231;65237;-60
2023/04/23 08:50:45;;;;;;;;;;;;;;;23.91;49.29;96923.22;611615;231;64948;-60
2023/04/23 08:53:14;;;;;;;;;;;;;;;23.90;48.11;96921.64;612404;231;63013;-60
2023/04/23 08:55:41;;;;;;;;;;;;;;;23.90;47.34;96916.27;612259;231;64898;-60
2023/04/23 08:58:09;;;;;;;;;;;;;;;23.91;49.60;96920.54;611603;231;66879;-60
2023/04/23 09:00:37;;;;;;;;;;;;;;;23.88;48.88;96911.19;612037;231;65143;-60
2023/04/23 09:03:05;;;;;;;;;;;;;;;23.89;48.92;96920.02;611333;231;65047;-60
2023/04/23 09:05:33;;;;;;;;;;;;;;;23.89;48.84;96914.66;611329;232;65132;-60
2023/04/23 09:08:00;;;;;;;;;;;;;;;23.87;48.22;96906.09;611072;231;62981;-61
2023/04/23 09:10:28;;;;;;;;;;;;;;;23.88;49.16;96905.02;613109;230;67226;-60
2023/04/23 09:12:56;;;;;;;;;;;;;;;23.86;48.96;96905.30;611699;231;64953;-60
2023/04/23 09:15:23;;;;;;;;;;;;;;;23.87;46.92;96911.46;611626;232;64863;-60
2023/04/23 09:17:51;;;;;;;;;;;;;;;23.86;48.92;96899.14;611141;232;67169;-60
2023/04/23 09:20:18;;;;;;;;;;;;;;;23.86;49.72;96904.52;611435;232;66990;-60
2023/04/23 09:22:51;;;;;;;;;;;;;;;23.86;49.90;96909.88;611362;232;65089;-60
2023/04/23 09:25:20;;;;;;;;;;;;;;;23.84;49.03;96904.79;611602;231;67214;-60
2023/04/23 09:27:48;;;;;;;;;;;;;;;23.84;48.73;96901.31;611336;231;66808;-60
2023/04/23 09:30:16;;;;;;;;;;;;;;;23.85;49.77;96911.77;611076;230;65182;-60
2023/04/23 09:32:44;;;;;;;;;;;;;;;23.85;48.17;96908.30;611278;231;67204;-60
2023/04/23 09:35:14;;;;;;;;;;;;;;;23.84;50.04;96904.79;611287;232;67365;-61
2023/04/23 09:37:42;;;;;;;;;;;;;;;23.83;49.47;96910.47;611084;231;61207;-61
2023/04/23 09:40:11;;;;;;;;;;;;;;;23.83;50.00;96907.78;611834;231;65103;-60
2023/04/23 09:42:38;;;;;;;;;;;;;;;23.82;49.66;96912.36;611086;231;67087;-60
2023/04/23 09:45:07;;;;;;;;;;;;;;;23.81;48.26;96913.42;611325;232;65085;-60
2023/04/23 09:47:36;;;;;;;;;;;;;;;23.81;47.28;96912.63;611431;231;67331;-61
2023/04/23 09:50:04;;;;;;;;;;;;;;;23.80;48.52;96922.58;610997;232;67703;-60
2023/04/23 09:52:32;;;;;;;;;;;;;;;23.80;48.77;96917.21;612136;231;65042;-60
2023/04/23 09:55:04;;;;;;;;;;;;;;;23.80;49.09;96922.58;611375;231;64694;-61
2023/04/23 09:57:39;;;;;;;;;;;;;;;23.80;48.56;96932.52;611351;230;67064;-60
2023/04/23 10:00:15;;;;;;;;;;;;;;;23.79;49.83;96925.54;611057;232;65995;-60
2023/04/23 10:02:49;;;;;;;;;;;;;;;23.79;49.68;96929.05;606427;231;67260;-60
2023/04/23 10:05:17;;;;;;;;;;;;;;;23.78;49.91;96929.32;611513;231;67202;-60
2023/04/23 10:07:47;;;;;;;;;;;;;;;23.78;49.04;96932.00;611367;231;65101;-60
2023/04/23 10:10:15;;;;;;;;;;;;;;;23.78;49.30;96932.00;611108;231;67328;-60
2023/04/23 10:12:43;;;;;;;;;;;;;;;23.76;46.57;96932.28;611764;231;67792;-60
2023/04/23 10:15:11;;;;;;;;;;;;;;;23.76;48.72;96934.97;611008;232;65050;-60
2023/04/23 10:17:39;;;;;;;;;;;;;;;23.75;47.83;96930.70;611363;231;65077;-60
2023/04/23 10:20:08;;;;;;;;;;;;;;;23.75;48.65;96930.70;610984;231;67084;-60
2023/04/23 10:22:37;;;;;;;;;;;;;;;23.74;48.43;96926.43;611078;230;65054;-60
2023/04/23 10:25:08;;;;;;;;;;;;;;;23.74;48.88;96923.75;611455;230;67967;-60
2023/04/23 10:27:36;;;;;;;;;;;;;;;23.74;49.51;96923.75;611812;231;67283;-60
2023/04/23 10:30:05;;;;;;;;;;;;;;;23.74;48.54;96920.27;612522;231;65149;-61
2023/04/23 10:32:33;;;;;;;;;;;;;;;23.74;49.01;96920.27;611415;232;67306;-61
2023/04/23 10:35:01;;;;;;;;;;;;;;;23.73;49.31;96915.98;611037;230;64342;-61
2023/04/23 10:37:29;;;;;;;;;;;;;;;23.72;46.81;96914.39;611182;230;65071;-61
2023/04/23 10:39:58;;;;;;;;;;;;;;;23.72;48.57;96909.81;611093;230;67300;-61
2023/04/23 10:42:26;;;;;;;;;;;;;;;23.70;47.51;96910.06;605187;232;67594;-61
2023/04/23 10:44:55;;;;;;;;;;;;;;;23.70;48.22;96904.70;611219;230;65068;-61
2023/04/23 10:47:23;;;;;;;;;;;;;;;23.70;48.62;96906.59;610874;232;67412;-61
2023/04/23 10:49:51;;;;;;;;;;;;;;;23.69;48.14;96900.43;611384;230;65172;-61
2023/04/23 10:52:20;;;;;;;;;;;;;;;23.69;47.05;96900.43;611008;232;65098;-61
2023/04/23 10:54:49;;;;;;;;;;;;;;;23.68;48.86;96906.90;611351;231;66982;-61
2023/04/23 10:57:16;;;;;;;;;;;;;;;23.69;48.79;96894.27;611267;232;67167;-61
2023/04/23 10:59:55;;;;;;;;;;;;;;;23.68;48.97;96889.98;611383;231;65109;-61
2023/04/23 11:02:25;;;;;;;;;;;;;;;23.67;50.45;96897.23;613674;231;65094;-61
2023/04/23 11:04:56;;;;;;;;;;;;;;;23.67;49.70;96889.19;611545;231;67128;-61
2023/04/23 11:07:28;;;;;;;;;;;;;;;23.66;48.92;96890.28;611357;231;65103;-61
2023/04/23 11:09:57;;;;;;;;;;;;;;;23.65;48.51;96888.70;611015;231;66948;-61
2023/04/23 11:12:26;;;;;;;;;;;;;;;23.66;48.58;96895.66;612105;231;67095;-61
2023/04/23 11:14:54;;;;;;;;;;;;;;;23.65;50.88;96886.02;612364;231;65095;-61
2023/04/23 11:17:24;;;;;;;;;;;;;;;23.64;49.52;96892.45;611330;232;67327;-60
2023/04/23 11:19:57;;;;;;;;;;;;;;;23.64;47.98;96889.77;611900;231;67073;-60
2023/04/23 11:22:26;;;;;;;;;;;;;;;23.65;48.03;96887.88;605531;231;65013;-60
2023/04/23 11:24:53;;;;;;;;;;;;;;;23.64;48.73;96886.30;613318;230;67275;-60
2023/04/23 11:27:20;;;;;;;;;;;;;;;23.64;49.46;96887.09;612860;231;67116;-60
2023/04/23 11:29:48;;;;;;;;;;;;;;;23.63;48.95;96882.03;611096;232;62939;-60
2023/04/23 11:32:16;;;;;;;;;;;;;;;23.64;49.23;96878.25;611085;230;66778;-60
2023/04/23 11:34:45;;;;;;;;;;;;;;;23.61;46.33;96876.95;611220;232;64742;-60
2023/04/23 11:37:14;;;;;;;;;;;;;;;23.62;48.83;96878.53;611761;231;65067;-61
2023/04/23 11:39:42;;;;;;;;;;;;;;;23.60;48.53;96875.36;611792;231;64697;-60
2023/04/23 11:42:10;;;;;;;;;;;;;;;23.60;46.58;96870.00;611597;231;66748;-60
2023/04/23 11:44:39;;;;;;;;;;;;;;;23.60;48.78;96870.00;611864;231;65041;-60
2023/04/23 11:47:10;;;;;;;;;;;;;;;23.60;50.27;96864.62;611626;231;64966;-60
2023/04/23 11:49:39;;;;;;;;;;;;;;;23.59;47.51;96865.70;611232;230;66901;-60
2023/04/23 11:52:10;;;;;;;;;;;;;;;23.59;49.09;96863.02;611611;231;44244;-60
2023/04/23 11:54:39;;;;;;;;;;;;;;;23.58;49.40;96861.44;611482;232;64712;-60
2023/04/23 11:57:09;;;;;;;;;;;;;;;23.58;48.30;96861.44;611104;230;66809;-60
2023/04/23 11:59:36;;;;;;;;;;;;;;;23.58;49.66;96860.64;611079;231;65115;-60
2023/04/23 12:02:03;;;;;;;;;;;;;;;23.56;49.44;96858.23;611961;230;67230;-60
2023/04/23 12:04:31;;;;;;;;;;;;;;;23.56;49.57;96852.87;611138;231;65274;-60
2023/04/23 12:06:59;;;;;;;;;;;;;;;23.55;48.18;96845.92;611353;231;64924;-60
2023/04/23 12:09:27;;;;;;;;;;;;;;;23.55;49.23;96845.92;610995;231;67190;-60
2023/04/23 12:11:57;;;;;;;;;;;;;;;23.55;49.95;96837.09;611217;230;66868;-60
2023/04/23 12:14:28;;;;;;;;;;;;;;;23.55;49.19;96835.20;613135;230;65070;-60
2023/04/23 12:16:56;;;;;;;;;;;;;;;23.55;49.68;96829.05;611021;232;65004;-61
2023/04/23 12:19:27;;;;;;;;;;;;;;;23.55;49.77;96829.05;611631;231;67088;-61
2023/04/23 12:22:01;;;;;;;;;;;;;;;23.53;49.52;96823.95;611942;230;64927;-60
2023/04/23 12:24:30;;;;;;;;;;;;;;;23.53;50.50;96823.95;612418;231;64594;-60
2023/04/23 12:26:59;;;;;;;;;;;;;;;23.53;49.46;96817.80;612019;230;67042;-60
2023/04/23 12:29:28;;;;;;;;;;;;;;;23.53;49.00;96802.50;611940;231;63011;-60
2023/04/23 12:31:57;;;;;;;;;;;;;;;23.53;50.02;96799.02;611879;231;67537;-60
2023/04/23 12:34:24;;;;;;;;;;;;;;;23.52;48.83;96797.41;610973;231;67010;-60
2023/04/23 12:36:56;;;;;;;;;;;;;;;23.51;50.21;96791.26;611044;231;65061;-60
2023/04/23 12:39:34;;;;;;;;;;;;;;;23.51;50.50;96785.89;611349;232;67264;-60
2023/04/23 12:42:03;;;;;;;;;;;;;;;23.51;49.55;96788.58;611129;231;66857;-60
2023/04/23 12:44:33;;;;;;;;;;;;;;;23.51;49.70;96791.26;611560;231;65100;-60
2023/04/23 12:47:04;;;;;;;;;;;;;;;23.50;49.02;96786.99;612481;231;66606;-60
2023/04/23 12:49:32;;;;;;;;;;;;;;;23.49;48.32;96786.20;611178;232;68912;-60
2023/04/23 12:52:02;;;;;;;;;;;;;;;23.49;48.91;96780.05;610868;231;65073;-60